createdAt,value
2023-01-21T00:02:05.511Z,85.85
2023-01-21T00:05:07.422Z,85.88
2023-01-21T00:08:09.025Z,85.77
2023-01-21T00:11:12.887Z,85.81
2023-01-21T00:14:14.504Z,85.66
2023-01-21T00:17:16.058Z,85.77
2023-01-21T00:20:18.039Z,85.70
2023-01-21T00:23:19.894Z,85.70
2023-01-21T00:26:21.475Z,85.64
2023-01-21T00:29:23.134Z,85.44
2023-01-21T00:32:24.825Z,85.55
2023-01-21T00:35:26.625Z,85.46
2023-01-21T00:38:29.156Z,85.61
2023-01-21T00:41:30.721Z,85.58
2023-01-21T00:44:32.339Z,85.75
2023-01-21T00:47:33.934Z,85.48
2023-01-21T00:50:35.747Z,85.42
2023-01-21T00:53:38.069Z,85.44
2023-01-21T00:56:39.673Z,85.80
2023-01-21T00:59:41.261Z,85.49
2023-01-21T01:02:42.862Z,85.43
2023-01-21T01:05:44.471Z,85.60
2023-01-21T01:08:46.869Z,85.64
2023-01-21T01:11:48.519Z,85.61
2023-01-21T01:14:50.115Z,85.36
2023-01-21T01:17:51.918Z,85.74
2023-01-21T01:20:53.489Z,85.58
2023-01-21T01:23:55.103Z,85.43
2023-01-21T01:26:56.755Z,85.43
2023-01-21T01:29:58.372Z,85.70
2023-01-21T01:33:00.203Z,85.61
2023-01-21T01:36:07.250Z,85.62
2023-01-21T01:39:08.871Z,85.44
2023-01-21T01:42:15.295Z,85.60
2023-01-21T01:45:21.375Z,85.43
2023-01-21T01:48:29.095Z,85.65
2023-01-21T01:51:46.764Z,85.88
2023-01-21T01:54:50.449Z,85.32
2023-01-21T01:57:53.905Z,85.39
2023-01-21T02:00:55.480Z,85.52
2023-01-21T02:03:57.683Z,85.57
2023-01-21T02:07:00.152Z,85.83
2023-01-21T02:10:02.624Z,85.57
2023-01-21T02:13:04.666Z,85.63
2023-01-21T02:16:27.979Z,85.74
2023-01-21T02:20:21.244Z,85.61
2023-01-21T02:23:42.970Z,85.91
2023-01-21T02:27:06.698Z,85.52
2023-01-21T02:30:29.773Z,85.55
2023-01-21T02:33:50.122Z,85.58
2023-01-21T02:37:13.885Z,85.60
2023-01-21T02:40:31.689Z,85.46
2023-01-21T02:43:42.896Z,85.62
2023-01-21T02:47:05.793Z,85.79
2023-01-21T02:50:20.479Z,85.45
2023-01-21T02:53:28.359Z,85.68
2023-01-21T02:56:29.907Z,85.76
2023-01-21T02:59:31.991Z,85.83
2023-01-21T03:02:40.890Z,85.79
2023-01-21T03:05:57.532Z,85.81
2023-01-21T03:09:05.637Z,85.79
2023-01-21T03:12:10.121Z,85.57
2023-01-21T03:15:20.318Z,85.90
2023-01-21T03:18:30.112Z,85.61
2023-01-21T03:21:32.775Z,85.58
2023-01-21T03:24:34.588Z,85.95
2023-01-21T03:27:39.457Z,85.80
2023-01-21T03:30:43.416Z,85.60
2023-01-21T03:33:47.285Z,85.83
2023-01-21T03:36:53.863Z,85.86
2023-01-21T03:40:04.725Z,86.15
2023-01-21T03:43:06.434Z,85.65
2023-01-21T03:46:32.554Z,85.81
2023-01-21T03:50:06.648Z,85.71
2023-01-21T03:53:08.348Z,85.62
2023-01-21T03:56:09.893Z,85.85
2023-01-21T03:59:11.889Z,85.63
2023-01-21T04:02:13.581Z,85.71
2023-01-21T04:05:18.246Z,85.88
2023-01-21T04:08:19.760Z,85.77
2023-01-21T04:11:21.349Z,85.95
2023-01-21T04:14:22.969Z,85.84
2023-01-21T04:17:24.576Z,85.78
2023-01-21T04:20:26.490Z,85.87
2023-01-21T04:23:28.161Z,85.99
2023-01-21T04:26:29.791Z,85.83
2023-01-21T04:29:31.405Z,85.90
2023-01-21T04:32:32.960Z,85.75
2023-01-21T04:35:36.107Z,85.96
2023-01-21T04:38:37.659Z,85.78
2023-01-21T04:41:39.708Z,86.14
2023-01-21T04:44:41.313Z,86.03
2023-01-21T04:47:43.748Z,85.86
2023-01-21T04:50:46.519Z,86.04
2023-01-21T04:53:48.172Z,86.38
2023-01-21T04:56:49.788Z,85.93
2023-01-21T04:59:51.452Z,85.81
2023-01-21T05:02:53.230Z,85.73
2023-01-21T05:05:54.772Z,86.02
2023-01-21T05:08:56.600Z,85.84
2023-01-21T05:11:58.129Z,85.95
2023-01-21T05:14:59.705Z,86.05
2023-01-21T05:18:01.311Z,86.14
2023-01-21T05:21:03.109Z,85.92
2023-01-21T05:24:04.715Z,85.91
2023-01-21T05:27:06.318Z,85.86
2023-01-21T05:30:09.159Z,86.09
2023-01-21T05:33:10.803Z,85.95
2023-01-21T05:36:12.808Z,85.69
2023-01-21T05:39:14.447Z,86.10
2023-01-21T05:42:16.072Z,86.03
2023-01-21T05:45:17.911Z,86.31
2023-01-21T05:48:19.417Z,86.03
2023-01-21T05:51:21.066Z,86.07
2023-01-21T05:54:22.647Z,85.92
2023-01-21T05:57:24.222Z,85.92
2023-01-21T06:00:26.069Z,85.92
2023-01-21T06:03:27.684Z,85.99
2023-01-21T06:06:29.348Z,86.10
2023-01-21T06:09:30.925Z,85.83
2023-01-21T06:12:32.592Z,85.87
2023-01-21T06:15:34.257Z,86.07
2023-01-21T06:18:36.055Z,85.86
2023-01-21T06:21:37.815Z,85.60
2023-01-21T06:24:39.311Z,85.37
2023-01-21T06:27:40.900Z,85.45
2023-01-21T06:30:42.556Z,85.35
2023-01-21T06:33:44.067Z,85.46
2023-01-21T06:36:45.730Z,85.26
2023-01-21T06:39:47.340Z,85.45
2023-01-21T06:42:49.775Z,85.52
2023-01-21T06:45:51.538Z,85.45
2023-01-21T06:48:53.107Z,85.51
2023-01-21T06:51:54.793Z,85.55
2023-01-21T06:54:56.449Z,85.50
2023-01-21T06:57:57.948Z,86.14
2023-01-21T07:00:59.677Z,86.04
2023-01-21T07:04:01.724Z,85.71
2023-01-21T07:07:03.319Z,85.79
2023-01-21T07:10:05.376Z,85.78
2023-01-21T07:13:06.912Z,85.49
2023-01-21T07:16:08.967Z,85.63
2023-01-21T07:19:11.845Z,85.53
2023-01-21T07:22:13.557Z,85.29
2023-01-21T07:25:15.401Z,85.29
2023-01-21T07:28:17.282Z,85.64
2023-01-21T07:31:18.958Z,85.44
2023-01-21T07:34:20.549Z,85.29
2023-01-21T07:37:22.440Z,85.35
2023-01-21T07:40:24.083Z,85.13
2023-01-21T07:43:25.785Z,85.18
2023-01-21T07:46:27.334Z,85.30
2023-01-21T07:49:28.952Z,85.32
2023-01-21T07:52:31.907Z,85.40
2023-01-21T07:55:33.586Z,85.45
2023-01-21T07:58:35.644Z,85.16
2023-01-21T08:01:37.310Z,85.54
2023-01-21T08:04:39.016Z,85.84
2023-01-21T08:07:40.646Z,85.51
2023-01-21T08:10:42.201Z,85.56
2023-01-21T08:13:43.772Z,85.56
2023-01-21T08:16:45.370Z,85.43
2023-01-21T08:19:46.884Z,85.20
2023-01-21T08:22:48.472Z,85.52
2023-01-21T08:25:50.270Z,85.67
2023-01-21T08:28:54.988Z,85.48
2023-01-21T08:31:57.775Z,85.53
2023-01-21T08:34:59.505Z,85.58
2023-01-21T08:38:02.009Z,85.42
2023-01-21T08:41:05.557Z,85.25
2023-01-21T08:44:07.792Z,85.19
2023-01-21T08:47:09.311Z,85.03
2023-01-21T08:50:11.127Z,85.29
2023-01-21T08:53:12.670Z,84.92
2023-01-21T08:56:14.243Z,84.98
2023-01-21T08:59:15.859Z,85.01
2023-01-21T09:02:17.771Z,85.50
2023-01-21T09:05:20.151Z,86.29
2023-01-21T09:08:21.810Z,85.75
2023-01-21T09:11:23.406Z,85.57
2023-01-21T09:14:25.081Z,85.58
2023-01-21T09:17:27.048Z,85.21
2023-01-21T09:20:28.763Z,85.43
2023-01-21T09:23:30.998Z,85.37
2023-01-21T09:26:32.775Z,85.55
2023-01-21T09:29:34.369Z,85.50
2023-01-21T09:32:35.965Z,85.52
2023-01-21T09:35:37.793Z,85.46
2023-01-21T09:38:41.376Z,85.43
2023-01-21T09:41:55.392Z,85.51
2023-01-21T09:44:57.773Z,85.45
2023-01-21T09:47:59.968Z,85.13
2023-01-21T09:51:06.317Z,85.24
2023-01-21T09:54:17.439Z,85.13
2023-01-21T09:57:37.618Z,85.62
2023-01-21T10:00:45.793Z,86.05
2023-01-21T10:03:54.894Z,85.47
2023-01-21T10:06:59.047Z,85.49
2023-01-21T10:10:19.116Z,85.41
2023-01-21T10:13:38.618Z,85.45
2023-01-21T10:16:52.578Z,85.31
2023-01-21T10:20:17.917Z,85.56
2023-01-21T10:23:31.558Z,85.50
2023-01-21T10:26:35.098Z,85.49
2023-01-21T10:29:40.180Z,85.43
2023-01-21T10:32:42.617Z,85.37
2023-01-21T10:36:02.867Z,85.43
2023-01-21T10:39:34.759Z,85.03
2023-01-21T10:43:09.235Z,85.07
2023-01-21T10:46:28.031Z,84.79
2023-01-21T10:50:03.564Z,84.88
2023-01-21T10:53:22.647Z,84.48
2023-01-21T10:56:39.809Z,84.97
2023-01-21T10:59:42.128Z,85.42
2023-01-21T11:02:44.345Z,84.99
2023-01-21T11:05:46.100Z,84.97
2023-01-21T11:08:59.900Z,85.10
2023-01-21T11:12:01.763Z,85.25
2023-01-21T11:15:14.288Z,85.07
2023-01-21T11:18:41.718Z,85.25
2023-01-21T11:22:17.840Z,85.01
2023-01-21T11:25:40.419Z,84.94
2023-01-21T11:28:42.182Z,85.14
2023-01-21T11:31:45.681Z,85.29
2023-01-21T11:34:49.851Z,85.18
2023-01-21T11:37:51.504Z,85.31
2023-01-21T11:40:59.666Z,85.19
2023-01-21T11:44:27.125Z,85.01
2023-01-21T11:47:44.201Z,84.92
2023-01-21T11:50:45.896Z,84.88
2023-01-21T11:53:47.437Z,85.02
2023-01-21T11:57:02.264Z,84.57
2023-01-21T12:00:20.380Z,84.26
2023-01-21T12:03:26.114Z,84.22
2023-01-21T12:06:29.153Z,84.58
2023-01-21T12:09:31.265Z,84.55
2023-01-21T12:12:52.090Z,84.44
2023-01-21T12:16:14.010Z,84.94
2023-01-21T12:19:19.379Z,85.34
2023-01-21T12:22:43.865Z,84.79
2023-01-21T12:25:52.098Z,84.75
2023-01-21T12:29:27.953Z,84.77
2023-01-21T12:32:32.120Z,84.81
2023-01-21T12:35:42.241Z,84.93
2023-01-21T12:38:47.116Z,84.92
2023-01-21T12:41:58.299Z,84.88
2023-01-21T12:45:32.591Z,85.01
2023-01-21T12:48:42.623Z,84.75
2023-01-21T12:51:46.913Z,84.77
2023-01-21T12:55:22.216Z,84.84
2023-01-21T12:58:26.555Z,84.62
2023-01-21T13:01:52.860Z,84.93
2023-01-21T13:05:29.723Z,84.82
2023-01-21T13:08:46.011Z,84.74
2023-01-21T13:11:53.195Z,84.74
2023-01-21T13:15:03.170Z,84.68
2023-01-21T13:18:11.916Z,84.62
2023-01-21T13:21:40.375Z,84.57
2023-01-21T13:24:54.958Z,84.39
2023-01-21T13:28:24.197Z,84.58
2023-01-21T13:31:32.743Z,84.57
2023-01-21T13:34:41.462Z,84.68
2023-01-21T13:38:05.167Z,84.62
2023-01-21T13:41:20.356Z,84.60
2023-01-21T13:44:40.940Z,84.60
2023-01-21T13:48:05.240Z,84.67
2023-01-21T13:51:15.792Z,84.70
2023-01-21T13:54:32.814Z,84.68
2023-01-21T13:58:00.465Z,85.11
2023-01-21T14:01:09.758Z,85.10
2023-01-21T14:04:15.905Z,84.58
2023-01-21T14:07:38.474Z,84.51
2023-01-21T14:10:48.624Z,84.44
2023-01-21T14:14:39.603Z,84.50
2023-01-21T14:17:56.668Z,84.76
2023-01-21T14:21:25.227Z,84.69
2023-01-21T14:24:39.076Z,84.73
2023-01-21T14:28:00.232Z,85.02
2023-01-21T14:31:09.622Z,84.77
2023-01-21T14:34:31.364Z,84.82
2023-01-21T14:37:41.210Z,84.86
2023-01-21T14:40:48.177Z,84.64
2023-01-21T14:43:52.219Z,84.78
2023-01-21T14:47:20.354Z,84.85
2023-01-21T14:50:45.703Z,85.36
2023-01-21T14:53:48.203Z,85.45
2023-01-21T14:56:54.113Z,85.49
2023-01-21T15:00:30.111Z,85.45
2023-01-21T15:03:31.740Z,85.25
2023-01-21T15:06:37.953Z,85.51
2023-01-21T15:09:43.781Z,85.23
2023-01-21T15:13:06.912Z,85.31
2023-01-21T15:16:17.622Z,85.29
2023-01-21T15:19:25.315Z,85.26
2023-01-21T15:22:41.317Z,85.28
2023-01-21T15:26:07.870Z,84.69
2023-01-21T15:29:38.932Z,84.50
2023-01-21T15:32:45.887Z,84.77
2023-01-21T15:35:47.781Z,84.79
2023-01-21T15:38:49.349Z,84.82
2023-01-21T15:42:18.214Z,85.22
2023-01-21T15:45:38.273Z,85.12
2023-01-21T15:49:14.243Z,85.04
2023-01-21T15:52:49.774Z,84.99
2023-01-21T15:56:02.725Z,85.07
2023-01-21T15:59:22.509Z,85.18
2023-01-21T16:02:27.305Z,85.21
2023-01-21T16:05:58.220Z,85.33
2023-01-21T16:09:05.347Z,85.06
2023-01-21T16:12:39.133Z,84.96
2023-01-21T16:15:55.819Z,85.31
2023-01-21T16:19:20.407Z,85.19
2023-01-21T16:22:28.432Z,84.95
2023-01-21T16:25:30.087Z,84.92
2023-01-21T16:28:47.914Z,85.12
2023-01-21T16:31:55.061Z,85.21
2023-01-21T16:34:56.678Z,84.96
2023-01-21T16:37:59.316Z,84.74
2023-01-21T16:41:07.285Z,84.84
2023-01-21T16:44:15.329Z,85.04
2023-01-21T16:47:35.464Z,85.46
2023-01-21T16:50:37.065Z,85.41
2023-01-21T16:53:38.661Z,84.80
2023-01-21T16:56:47.984Z,84.89
2023-01-21T16:59:49.648Z,84.77
2023-01-21T17:02:51.319Z,85.10
2023-01-21T17:05:55.618Z,85.39
2023-01-21T17:09:00.286Z,85.44
2023-01-21T17:12:06.040Z,85.60
2023-01-21T17:15:17.579Z,85.26
2023-01-21T17:18:22.062Z,85.26
2023-01-21T17:21:36.301Z,85.38
2023-01-21T17:24:39.629Z,85.18
2023-01-21T17:27:42.803Z,85.31
2023-01-21T17:30:44.600Z,85.12
2023-01-21T17:33:46.110Z,85.45
2023-01-21T17:36:52.607Z,85.55
2023-01-21T17:39:54.194Z,85.19
2023-01-21T17:42:56.941Z,85.53
2023-01-21T17:45:59.010Z,85.18
2023-01-21T17:49:03.947Z,85.03
2023-01-21T17:52:05.565Z,84.69
2023-01-21T17:55:34.652Z,84.91
2023-01-21T17:58:49.942Z,85.32
2023-01-21T18:01:54.955Z,85.24
2023-01-21T18:04:56.608Z,85.00
2023-01-21T18:07:58.560Z,85.00
2023-01-21T18:11:00.144Z,85.13
2023-01-21T18:14:01.963Z,85.28
2023-01-21T18:17:03.543Z,85.57
2023-01-21T18:20:15.456Z,85.45
2023-01-21T18:23:17.316Z,85.62
2023-01-21T18:26:30.274Z,85.75
2023-01-21T18:29:31.928Z,85.35
2023-01-21T18:32:33.521Z,85.28
2023-01-21T18:35:35.226Z,85.29
2023-01-21T18:38:36.872Z,85.58
2023-01-21T18:41:38.468Z,85.50
2023-01-21T18:44:40.333Z,85.46
2023-01-21T18:47:42.212Z,85.91
2023-01-21T18:50:43.648Z,85.54
2023-01-21T18:53:45.283Z,85.34
2023-01-21T18:56:47.105Z,85.30
2023-01-21T18:59:48.559Z,85.50
2023-01-21T19:02:51.563Z,85.42
2023-01-21T19:05:53.212Z,85.86
2023-01-21T19:08:54.862Z,85.42
2023-01-21T19:11:56.513Z,84.93
2023-01-21T19:14:58.268Z,84.76
2023-01-21T19:18:00.030Z,85.07
2023-01-21T19:21:01.679Z,85.31
2023-01-21T19:24:03.651Z,85.41
2023-01-21T19:27:05.372Z,85.47
2023-01-21T19:30:22.389Z,85.52
2023-01-21T19:33:25.112Z,85.35
2023-01-21T19:36:26.812Z,85.24
2023-01-21T19:39:28.332Z,85.45
2023-01-21T19:42:29.871Z,85.57
2023-01-21T19:45:31.490Z,85.37
2023-01-21T19:48:33.470Z,85.57
2023-01-21T19:51:35.316Z,85.21
2023-01-21T19:54:36.810Z,85.36
2023-01-21T19:57:38.888Z,85.30
2023-01-21T20:00:40.560Z,85.67
2023-01-21T20:03:54.608Z,85.55
2023-01-21T20:07:01.156Z,85.52
2023-01-21T20:10:12.869Z,85.38
2023-01-21T20:13:15.280Z,85.30
2023-01-21T20:16:18.853Z,85.40
2023-01-21T20:19:21.402Z,85.52
2023-01-21T20:22:23.157Z,85.47
2023-01-21T20:25:26.660Z,85.29
2023-01-21T20:28:38.357Z,85.46
2023-01-21T20:31:40.016Z,85.35
2023-01-21T20:34:41.640Z,85.67
2023-01-21T20:37:45.085Z,85.21
2023-01-21T20:40:46.591Z,85.14
2023-01-21T20:43:48.262Z,85.17
2023-01-21T20:46:49.881Z,85.23
2023-01-21T20:49:51.395Z,85.37
2023-01-21T20:52:53.755Z,85.48
2023-01-21T20:55:55.368Z,85.86
2023-01-21T20:58:56.974Z,85.33
2023-01-21T21:01:58.632Z,85.14
2023-01-21T21:05:00.284Z,85.15
2023-01-21T21:08:02.367Z,85.62
2023-01-21T21:11:04.103Z,85.52
2023-01-21T21:14:05.828Z,85.52
2023-01-21T21:17:11.791Z,85.21
2023-01-21T21:20:23.220Z,85.23
2023-01-21T21:23:24.796Z,85.48
2023-01-21T21:26:28.010Z,85.53
2023-01-21T21:29:29.550Z,85.36
2023-01-21T21:32:31.339Z,85.69
2023-01-21T21:35:36.936Z,85.58
2023-01-21T21:38:38.506Z,85.38
2023-01-21T21:41:40.249Z,85.43
2023-01-21T21:44:45.133Z,85.92
2023-01-21T21:47:46.861Z,85.69
2023-01-21T21:50:58.107Z,85.91
2023-01-21T21:53:59.712Z,85.69
2023-01-21T21:57:01.302Z,85.77
2023-01-21T22:00:03.137Z,85.36
2023-01-21T22:03:04.707Z,85.53
2023-01-21T22:06:07.360Z,85.60
2023-01-21T22:09:09.162Z,85.45
2023-01-21T22:12:10.913Z,85.83
2023-01-21T22:15:12.608Z,85.63
2023-01-21T22:18:14.288Z,85.82
2023-01-21T22:21:21.351Z,85.81
2023-01-21T22:24:22.983Z,85.62
2023-01-21T22:27:24.771Z,85.50
2023-01-21T22:30:26.305Z,85.84
2023-01-21T22:33:27.887Z,85.51
2023-01-21T22:36:30.928Z,85.78
2023-01-21T22:39:32.520Z,85.87
2023-01-21T22:42:34.110Z,86.05
2023-01-21T22:45:35.894Z,85.82
2023-01-21T22:48:37.387Z,86.19
2023-01-21T22:51:38.943Z,86.06
2023-01-21T22:54:40.648Z,86.13
2023-01-21T22:57:42.289Z,86.15
2023-01-21T23:00:43.811Z,86.00
2023-01-21T23:03:45.633Z,86.17
2023-01-21T23:06:47.194Z,85.92
2023-01-21T23:09:49.311Z,85.98
2023-01-21T23:12:50.921Z,85.93
2023-01-21T23:15:52.742Z,85.86
2023-01-21T23:18:54.308Z,85.96
2023-01-21T23:21:55.890Z,85.96
2023-01-21T23:24:57.549Z,85.58
2023-01-21T23:27:59.152Z,85.95
2023-01-21T23:31:08.780Z,85.78
2023-01-21T23:34:12.946Z,85.78
2023-01-21T23:37:14.609Z,85.94
2023-01-21T23:40:16.568Z,85.77
2023-01-21T23:43:18.499Z,85.83
2023-01-21T23:46:20.337Z,85.72
2023-01-21T23:49:21.974Z,85.67
2023-01-21T23:52:23.752Z,85.62
2023-01-21T23:55:25.425Z,85.68
2023-01-21T23:58:27.115Z,85.49
